Time;durP1;ratioP1;P1;durP2;ratioP2;P2;SDS_P1;SDS_P2;PMS_P1;PMS_P2;Temp;Humidity;BMP_temperature;BMP_pressure;BME280_temperature;BME280_humidity;BME280_pressure;Samples;Min_cycle;Max_cycle;Signal;HPM_P1;HPM_P2
2023/02/14 00:02:16;;;;;;;52.67;17.20;;;;;;;2.09;55.46;103671.97;4957873;28;20034;-73
2023/02/14 00:04:45;;;;;;;49.90;19.17;;;;;;;2.06;55.40;103669.22;4948905;28;20049;-69
2023/02/14 00:07:11;;;;;;;50.50;18.40;;;;;;;2.05;55.25;103670.94;4956468;28;20211;-70
2023/02/14 00:09:37;;;;;;;51.65;18.05;;;;;;;1.97;55.09;103671.44;4944165;28;20052;-71
2023/02/14 00:12:13;;;;;;;45.15;16.63;;;;;;;1.87;55.10;103670.19;4962181;28;20038;-69
2023/02/14 00:17:28;;;;;;;43.22;16.90;;;;;;;1.84;55.44;103670.06;4954417;28;20031;-71
2023/02/14 00:19:56;;;;;;;39.20;12.73;;;;;;;1.80;55.29;103657.88;4965671;28;20045;-71
2023/02/14 00:22:36;;;;;;;46.97;18.38;;;;;;;1.78;55.38;103670.69;4955583;28;20034;-71
2023/02/14 00:25:02;;;;;;;48.80;19.00;;;;;;;1.73;55.53;103667.06;4952231;28;20236;-71
2023/02/14 00:27:30;;;;;;;47.45;17.33;;;;;;;1.67;55.72;103671.94;4960482;28;20045;-69
2023/02/14 00:30:01;;;;;;;48.97;18.27;;;;;;;1.69;55.75;103670.31;4971468;28;20093;-73
2023/02/14 00:32:32;;;;;;;51.45;19.23;;;;;;;1.77;55.42;103671.50;4958367;28;20116;-71
2023/02/14 00:35:08;;;;;;;58.05;18.25;;;;;;;1.77;55.85;103662.88;4956691;28;20046;-75
2023/02/14 00:37:41;;;;;;;60.33;18.73;;;;;;;1.72;55.55;103670.44;4934387;28;22349;-70
2023/02/14 00:40:10;;;;;;;60.97;20.42;;;;;;;1.67;55.74;103659.06;4951625;28;20385;-69
2023/02/14 00:42:38;;;;;;;52.43;19.87;;;;;;;1.75;55.63;103654.19;4947715;28;20085;-69
2023/02/14 00:45:09;;;;;;;47.90;20.20;;;;;;;1.72;55.24;103660.13;4953873;28;20303;-69
2023/02/14 00:47:36;;;;;;;56.30;17.80;;;;;;;1.67;55.60;103654.78;4946724;28;20094;-69
2023/02/14 00:50:03;;;;;;;50.42;17.30;;;;;;;1.75;55.46;103659.34;4970971;28;20037;-69
2023/02/14 00:52:29;;;;;;;55.40;18.88;;;;;;;1.65;55.25;103651.25;4960199;28;20616;-69
2023/02/14 00:55:00;;;;;;;59.28;20.13;;;;;;;1.60;55.42;103651.88;4960583;28;20050;-70
2023/02/14 00:57:26;;;;;;;50.17;18.80;;;;;;;1.57;55.80;103646.59;4980035;28;20486;-70
2023/02/14 00:59:51;;;;;;;46.85;18.38;;;;;;;1.57;55.73;103644.88;4940810;28;20085;-70
2023/02/14 01:02:25;;;;;;;43.15;18.85;;;;;;;1.56;55.68;103647.41;4952013;28;20039;-69
2023/02/14 01:05:00;;;;;;;48.22;18.20;;;;;;;1.54;55.42;103643.88;4950641;28;20045;-68
2023/02/14 01:07:30;;;;;;;53.00;17.20;;;;;;;1.51;55.44;103637.78;4966294;28;20035;-68
2023/02/14 01:09:58;;;;;;;55.97;19.67;;;;;;;1.43;55.63;103638.28;4942305;28;20180;-68
2023/02/14 01:12:26;;;;;;;58.42;20.23;;;;;;;1.39;55.86;103634.63;4957390;28;20168;-70
2023/02/14 01:14:56;;;;;;;53.97;18.80;;;;;;;1.29;55.56;103640.22;4935862;28;20042;-70
2023/02/14 01:17:21;;;;;;;49.92;17.15;;;;;;;1.35;55.79;103630.19;4968938;28;20026;-70
2023/02/14 01:19:46;;;;;;;48.53;19.65;;;;;;;1.34;55.69;103636.16;4947315;28;20518;-69
2023/02/14 01:22:14;;;;;;;48.40;18.30;;;;;;;1.31;55.57;103636.91;4956783;28;20282;-77
2023/02/14 01:24:50;;;;;;;49.90;19.33;;;;;;;1.30;56.06;103632.56;4940162;28;20258;-77
2023/02/14 01:27:15;;;;;;;45.45;16.85;;;;;;;1.38;56.05;103632.88;4951394;28;20041;-77
2023/02/14 01:29:45;;;;;;;53.35;18.50;;;;;;;1.29;55.57;103627.34;4937639;28;20610;-76
2023/02/14 01:32:10;;;;;;;62.97;18.23;;;;;;;1.29;55.97;103627.34;4965136;28;20106;-72
2023/02/14 01:34:41;;;;;;;58.17;20.67;;;;;;;1.29;56.00;103629.94;4942630;28;20575;-71
2023/02/14 01:37:09;;;;;;;55.55;19.02;;;;;;;1.27;55.83;103631.56;4966756;28;20054;-69
2023/02/14 01:39:40;;;;;;;50.38;17.65;;;;;;;1.18;55.50;103634.59;4951134;28;20049;-71
2023/02/14 01:42:09;;;;;;;53.25;18.90;;;;;;;1.07;55.41;103638.41;4938996;28;20038;-72
2023/02/14 01:44:34;;;;;;;56.33;17.70;;;;;;;1.01;55.71;103638.13;4945647;28;20478;-71
2023/02/14 01:47:07;;;;;;;52.38;18.90;;;;;;;1.00;55.70;103639.84;4947088;28;20758;-67
2023/02/14 01:49:49;;;;;;;49.80;17.77;;;;;;;1.00;55.92;103639.84;4938534;28;20522;-78
2023/02/14 01:52:22;;;;;;;50.20;19.85;;;;;;;1.00;55.63;103629.53;4956243;28;20065;-70
2023/02/14 01:54:56;;;;;;;61.00;18.42;;;;;;;0.92;55.89;103630.00;4958082;28;20104;-70
2023/02/14 01:57:34;;;;;;;52.22;18.25;;;;;;;0.93;55.57;103626.63;4951241;28;20476;-70
2023/02/14 02:00:55;;;;;;;63.20;20.45;;;;;;;0.87;55.64;103627.22;4952560;28;20042;-72
2023/02/14 02:02:47;;;;;;;57.80;19.75;;;;;;;0.87;55.91;103627.22;4945755;28;20042;-72
2023/02/14 02:05:14;;;;;;;44.63;17.00;;;;;;;0.77;55.57;103630.19;4969296;28;20097;-71
2023/02/14 02:07:45;;;;;;;54.20;19.77;;;;;;;0.69;55.95;103616.97;4956627;28;20121;-71
2023/02/14 02:10:18;;;;;;;52.92;18.63;;;;;;;0.76;56.10;103613.00;4950777;28;20323;-68
2023/02/14 02:12:49;;;;;;;58.70;20.73;;;;;;;0.77;56.29;103610.50;4954524;28;20057;-71
2023/02/14 02:15:19;;;;;;;56.88;18.88;;;;;;;0.84;56.15;103602.22;4956443;28;20150;-70
2023/02/14 02:18:05;;;;;;;50.22;19.52;;;;;;;0.88;56.60;103606.69;4950237;28;20039;-70
2023/02/14 02:20:52;;;;;;;55.17;20.27;;;;;;;0.95;56.73;103600.13;4972670;28;20320;-69
2023/02/14 02:23:52;;;;;;;59.17;19.92;;;;;;;1.03;56.37;103601.31;4945857;28;20042;-69
2023/02/14 02:26:55;;;;;;;52.92;18.83;;;;;;;1.10;56.38;103600.81;4953644;28;20090;-68
2023/02/14 02:29:34;;;;;;;57.05;20.83;;;;;;;1.11;56.29;103605.13;4967427;28;20482;-71
2023/02/14 02:32:15;;;;;;;51.28;18.42;;;;;;;1.08;56.66;103606.66;4967560;28;20042;-70
2023/02/14 02:34:59;;;;;;;53.13;18.50;;;;;;;1.15;56.65;103602.66;4954562;28;20669;-71
2023/02/14 02:37:43;;;;;;;52.53;20.30;;;;;;;1.16;56.30;103599.28;4954533;28;20035;-72
2023/02/14 02:40:17;;;;;;;49.63;18.52;;;;;;;1.19;56.55;103597.72;4954385;28;20435;-71
2023/02/14 02:43:15;;;;;;;49.95;19.92;;;;;;;1.21;56.78;103600.38;4957339;28;20034;-70
2023/02/14 02:49:03;;;;;;;48.80;17.67;;;;;;;1.26;56.63;103601.44;4951648;28;20097;-71
2023/02/14 02:54:40;;;;;;;50.55;18.00;;;;;;;1.30;56.11;103593.03;4955062;28;20046;-70
2023/02/14 02:57:18;;;;;;;58.75;19.85;;;;;;;1.26;56.33;103588.53;4953776;28;20035;-69
2023/02/14 02:59:51;;;;;;;49.33;17.00;;;;;;;1.23;56.39;103594.44;4956718;28;20038;-69
2023/02/14 03:02:22;;;;;;;45.28;15.70;;;;;;;1.25;56.41;103594.53;4947837;28;20124;-68
2023/02/14 03:04:55;;;;;;;50.83;18.73;;;;;;;1.26;56.22;103585.97;4960703;28;20095;-69
2023/02/14 03:07:36;;;;;;;44.95;16.77;;;;;;;1.28;56.50;103592.06;4959988;28;20351;-69
2023/02/14 03:10:12;;;;;;;51.47;18.13;;;;;;;1.24;56.87;103592.78;4946531;28;20057;-69
2023/02/14 03:13:12;;;;;;;55.85;19.35;;;;;;;1.34;56.31;103594.91;4952039;28;20097;-69
2023/02/14 03:15:50;;;;;;;48.85;18.27;;;;;;;1.32;56.38;103583.66;4963142;28;20453;-68
2023/02/14 03:18:29;;;;;;;49.95;17.42;;;;;;;1.34;56.10;103587.19;4952423;28;20030;-69
2023/02/14 03:21:09;;;;;;;49.67;16.67;;;;;;;1.28;55.90;103589.50;4948778;28;20047;-69
2023/02/14 03:23:45;;;;;;;51.60;18.17;;;;;;;1.23;56.20;103586.72;4944890;28;20046;-70
2023/02/14 03:26:15;;;;;;;53.85;17.23;;;;;;;1.19;55.79;103589.09;4954260;28;20031;-70
2023/02/14 03:28:52;;;;;;;46.45;17.80;;;;;;;1.10;56.14;103584.44;4956780;28;20803;-68
2023/02/14 03:31:31;;;;;;;43.50;16.90;;;;;;;1.05;55.66;103583.38;4953618;28;20022;-69
2023/02/14 03:34:09;;;;;;;46.05;16.98;;;;;;;0.98;56.02;103589.94;4944568;28;20084;-68
2023/02/14 03:36:47;;;;;;;43.85;17.25;;;;;;;0.96;56.07;103581.28;4968211;28;20026;-73
2023/02/14 03:39:40;;;;;;;50.58;18.20;;;;;;;0.93;55.99;103582.84;4968158;28;20043;-72
2023/02/14 03:42:15;;;;;;;45.63;16.83;;;;;;;0.90;56.22;103583.56;4956323;28;20186;-71
2023/02/14 03:44:50;;;;;;;43.80;16.05;;;;;;;0.90;55.80;103570.69;4945852;28;20085;-71
2023/02/14 03:47:25;;;;;;;52.55;17.83;;;;;;;0.88;56.29;103568.06;4952843;28;20034;-72
2023/02/14 03:49:58;;;;;;;42.65;17.42;;;;;;;0.93;56.28;103569.97;4943684;28;20552;-72
2023/02/14 03:52:29;;;;;;;50.30;17.00;;;;;;;0.95;56.28;103566.66;4952166;28;20077;-74
2023/02/14 03:54:58;;;;;;;49.92;19.05;;;;;;;0.96;56.48;103565.81;4965911;28;20056;-73
2023/02/14 03:57:33;;;;;;;53.72;18.63;;;;;;;0.94;56.04;103556.28;4952687;28;20030;-73
2023/02/14 03:59:59;;;;;;;54.03;17.98;;;;;;;0.94;56.34;103561.41;4945451;28;20091;-73
2023/02/14 04:02:35;;;;;;;50.45;17.90;;;;;;;0.89;55.83;103558.66;4952057;28;20398;-70
2023/02/14 04:05:10;;;;;;;56.00;19.35;;;;;;;0.82;56.55;103556.63;4951748;28;20042;-71
2023/02/14 04:07:51;;;;;;;54.25;17.45;;;;;;;0.76;56.67;103556.34;4952345;28;20057;-71
2023/02/14 04:10:23;;;;;;;52.63;19.45;;;;;;;0.84;56.34;103552.44;4942118;28;20046;-75
2023/02/14 04:12:49;;;;;;;52.60;19.35;;;;;;;0.81;56.37;103549.69;4970029;28;20038;-73
2023/02/14 04:15:17;;;;;;;53.08;18.30;;;;;;;0.72;56.09;103544.16;4964273;28;20103;-75
2023/02/14 04:20:32;;;;;;;55.63;19.25;;;;;;;0.73;56.62;103545.94;4964289;28;20314;-70
2023/02/14 04:23:00;;;;;;;55.45;18.73;;;;;;;0.71;56.82;103539.84;4956439;28;20034;-69
2023/02/14 04:25:31;;;;;;;57.63;20.75;;;;;;;0.69;56.96;103545.78;4943818;28;20039;-68
2023/02/14 04:27:59;;;;;;;62.08;19.38;;;;;;;0.73;57.21;103538.22;4952507;28;20046;-69
2023/02/14 04:30:24;;;;;;;64.07;19.33;;;;;;;0.74;56.82;103535.69;4951450;28;20046;-68
2023/02/14 04:32:51;;;;;;;52.80;18.65;;;;;;;0.72;56.81;103541.59;4948923;28;20048;-67
2023/02/14 04:35:16;;;;;;;58.90;18.63;;;;;;;0.70;56.63;103538.94;4942213;28;20050;-70
2023/02/14 04:37:42;;;;;;;51.92;20.10;;;;;;;0.73;56.54;103538.22;4952091;28;20599;-72
2023/02/14 04:40:11;;;;;;;60.00;20.08;;;;;;;0.69;56.73;103545.78;4940721;28;20045;-73
2023/02/14 04:42:36;;;;;;;53.40;19.40;;;;;;;0.73;56.95;103536.50;4946889;28;20045;-72
2023/02/14 04:45:04;;;;;;;60.88;18.67;;;;;;;0.64;57.28;103536.97;4952523;28;20152;-72
2023/02/14 04:47:29;;;;;;;55.15;19.10;;;;;;;0.62;57.57;103537.72;4952026;28;20035;-71
2023/02/14 04:49:57;;;;;;;59.95;19.27;;;;;;;0.76;56.96;103543.47;4957286;28;20964;-73
2023/02/14 04:52:33;;;;;;;51.60;18.88;;;;;;;0.75;57.18;103528.81;4959855;28;20027;-72
2023/02/14 04:55:00;;;;;;;56.22;19.83;;;;;;;0.74;57.30;103534.81;4957548;28;20069;-72
2023/02/14 04:57:30;;;;;;;63.15;19.38;;;;;;;0.75;57.54;103534.88;4950164;28;20582;-72
2023/02/14 04:59:56;;;;;;;48.65;18.73;;;;;;;0.74;56.52;103532.22;4937399;28;20070;-67
2023/02/14 05:02:22;;;;;;;55.33;20.48;;;;;;;0.61;57.04;103529.13;4953591;28;20440;-68
2023/02/14 05:04:49;;;;;;;53.72;19.30;;;;;;;0.62;57.62;103527.44;4951204;28;20070;-68
2023/02/14 05:07:27;;;;;;;54.22;18.52;;;;;;;0.69;57.31;103520.03;4949924;28;20471;-67
2023/02/14 05:09:53;;;;;;;47.15;17.67;;;;;;;0.65;57.49;103523.28;4943403;28;20042;-67
2023/02/14 05:12:30;;;;;;;53.42;19.42;;;;;;;0.69;57.27;103525.19;4947887;28;20511;-68
2023/02/14 05:14:57;;;;;;;59.88;19.33;;;;;;;0.65;57.16;103515.56;4945102;28;20046;-68
2023/02/14 05:17:25;;;;;;;54.40;20.25;;;;;;;0.58;57.51;103520.38;4949366;28;20031;-68
2023/02/14 05:19:56;;;;;;;51.85;19.65;;;;;;;0.64;57.56;103513.81;4943783;28;20609;-68
2023/02/14 05:22:26;;;;;;;45.60;18.08;;;;;;;0.55;57.60;103510.84;4957882;28;20034;-68
2023/02/14 05:24:51;;;;;;;46.55;16.42;;;;;;;0.71;57.12;103507.25;4949713;28;20139;-70
2023/02/14 05:27:19;;;;;;;46.67;18.00;;;;;;;0.69;57.02;103514.88;4949260;28;20031;-69
2023/02/14 05:29:57;;;;;;;46.22;16.80;;;;;;;0.72;57.20;103505.53;4952449;28;20045;-69
2023/02/14 05:32:22;;;;;;;43.60;17.27;;;;;;;0.74;56.71;103507.38;4951536;28;20273;-69
2023/02/14 05:34:47;;;;;;;50.08;17.77;;;;;;;0.69;56.94;103509.72;4958739;28;20702;-69
2023/02/14 05:37:13;;;;;;;47.30;16.95;;;;;;;0.65;56.70;103506.97;4957900;28;20034;-69
2023/02/14 05:39:38;;;;;;;50.17;17.33;;;;;;;0.57;57.09;103509.22;4938257;28;20111;-70
2023/02/14 05:42:06;;;;;;;46.17;16.60;;;;;;;0.51;56.99;103506.38;4957690;28;20104;-70
2023/02/14 05:44:34;;;;;;;51.05;18.08;;;;;;;0.43;57.16;103510.28;4934489;28;20046;-71
2023/02/14 05:47:02;;;;;;;43.95;17.08;;;;;;;0.41;57.38;103506.75;4950025;28;20496;-68
2023/02/14 05:49:29;;;;;;;39.90;17.40;;;;;;;0.55;57.16;103504.81;4950863;28;20093;-71
2023/02/14 05:51:57;;;;;;;53.05;18.73;;;;;;;0.50;57.13;103502.00;4966213;28;20944;-75
2023/02/14 05:54:25;;;;;;;53.15;18.58;;;;;;;0.46;57.28;103502.72;4952633;28;20389;-76
2023/02/14 05:56:53;;;;;;;51.38;17.65;;;;;;;0.52;56.94;103495.25;4955566;28;20487;-71
2023/02/14 05:59:21;;;;;;;51.47;18.20;;;;;;;0.48;57.12;103493.38;4939946;28;20185;-68
2023/02/14 06:01:59;;;;;;;45.38;16.52;;;;;;;0.48;56.65;103499.41;4952735;28;20034;-70
2023/02/14 06:04:32;;;;;;;45.47;17.25;;;;;;;0.44;56.87;103502.63;4950373;28;20042;-69
2023/02/14 06:07:03;;;;;;;44.42;16.75;;;;;;;0.41;56.83;103502.53;4950071;28;20039;-71
2023/02/14 06:09:31;;;;;;;46.25;17.38;;;;;;;0.34;57.06;103490.16;4965940;28;20047;-72
2023/02/14 06:11:59;;;;;;;47.30;16.35;;;;;;;0.30;57.28;103495.09;4950618;28;20034;-67
2023/02/14 06:14:24;;;;;;;41.85;15.55;;;;;;;0.43;57.43;103495.72;4946285;28;20046;-68
2023/02/14 06:16:55;;;;;;;52.00;19.23;;;;;;;0.46;57.16;103501.03;4950358;28;20702;-68
2023/02/14 06:19:25;;;;;;;55.33;18.88;;;;;;;0.48;57.26;103498.53;4949261;28;20567;-68
2023/02/14 06:21:55;;;;;;;47.38;16.35;;;;;;;0.42;57.09;103493.09;4949482;28;20062;-67
2023/02/14 06:24:21;;;;;;;44.95;16.75;;;;;;;0.35;57.11;103501.38;4953335;28;20037;-67
2023/02/14 06:27:00;;;;;;;42.95;16.05;;;;;;;0.21;57.02;103501.63;4965207;28;20774;-72
2023/02/14 06:29:25;;;;;;;48.60;17.50;;;;;;;0.20;57.21;103492.13;4947871;28;20039;-70
2023/02/14 06:31:51;;;;;;;43.75;17.13;;;;;;;0.18;57.26;103493.75;4947407;28;20045;-70
2023/02/14 06:34:19;;;;;;;53.55;17.52;;;;;;;0.15;56.89;103496.19;4948269;28;20034;-70
2023/02/14 06:36:45;;;;;;;46.30;15.50;;;;;;;0.15;56.82;103491.03;4946891;28;20092;-70
2023/02/14 06:39:16;;;;;;;52.60;17.45;;;;;;;0.12;57.03;103493.47;4937683;28;20053;-70
2023/02/14 06:41:47;;;;;;;61.67;18.20;;;;;;;0.25;57.97;103495.78;4946462;28;20248;-71
2023/02/14 06:44:17;;;;;;;51.63;17.90;;;;;;;0.31;57.47;103494.31;4951933;28;20043;-69
2023/02/14 06:46:43;;;;;;;47.45;16.98;;;;;;;0.41;57.51;103499.94;4953538;28;20034;-72
2023/02/14 06:49:09;;;;;;;55.83;19.42;;;;;;;0.48;57.50;103503.66;4959489;28;20653;-75
2023/02/14 06:51:42;;;;;;;49.55;17.20;;;;;;;0.44;57.33;103506.91;4947532;28;20494;-69
2023/02/14 06:54:10;;;;;;;55.45;17.10;;;;;;;0.44;57.66;103494.06;4932919;28;20038;-69
2023/02/14 06:56:37;;;;;;;50.10;17.23;;;;;;;0.50;57.44;103496.88;4941808;28;20810;-67
2023/02/14 06:59:05;;;;;;;55.78;17.83;;;;;;;0.54;57.53;103498.78;4939548;28;20038;-72
2023/02/14 07:01:30;;;;;;;51.67;16.67;;;;;;;0.64;57.40;103505.22;4953837;28;20035;-70
2023/02/14 07:03:59;;;;;;;57.30;16.52;;;;;;;0.66;57.27;103499.31;4948161;28;20051;-70
2023/02/14 07:06:25;;;;;;;40.47;15.35;;;;;;;0.63;57.55;103509.47;4963039;28;20108;-69
2023/02/14 07:08:56;;;;;;;54.88;17.95;;;;;;;0.62;58.03;103496.56;4948227;28;20595;-69
2023/02/14 07:11:29;;;;;;;48.65;17.67;;;;;;;0.70;57.58;103500.31;4973631;28;20027;-78
2023/02/14 07:13:54;;;;;;;48.33;17.80;;;;;;;0.80;57.79;103504.19;4946680;28;20034;-69
2023/02/14 07:16:20;;;;;;;47.08;14.57;;;;;;;0.82;57.78;103506.00;4950662;28;20436;-68
2023/02/14 07:18:49;;;;;;;50.70;16.25;;;;;;;0.88;57.37;103502.78;4956517;28;20050;-68
2023/02/14 07:21:20;;;;;;;41.17;14.90;;;;;;;0.88;57.93;103506.28;4939228;28;20042;-69
2023/02/14 07:23:51;;;;;;;35.40;11.55;;;;;;;0.89;58.03;103496.84;4946059;28;21759;-70
2023/02/14 07:26:17;;;;;;;52.80;17.33;;;;;;;0.87;58.32;103501.06;4966884;28;20030;-68
2023/02/14 07:28:50;;;;;;;45.88;16.45;;;;;;;1.03;58.10;103498.28;4945142;28;20083;-69
2023/02/14 07:31:17;;;;;;;50.40;16.52;;;;;;;1.10;57.57;103500.34;4963312;28;20029;-71
2023/02/14 07:33:45;;;;;;;47.97;16.92;;;;;;;1.16;57.61;103502.28;4948490;28;20089;-75
2023/02/14 07:36:13;;;;;;;47.00;18.02;;;;;;;1.31;57.71;103510.63;4971913;28;20078;-66
2023/02/14 07:38:41;;;;;;;55.22;18.98;;;;;;;1.37;57.58;103507.41;4922955;28;20508;-66
2023/02/14 07:41:09;;;;;;;50.75;18.58;;;;;;;1.31;57.50;103499.47;4951954;28;20037;-68
2023/02/14 07:43:35;;;;;;;47.17;17.50;;;;;;;1.48;58.49;103498.47;4950282;28;20530;-66
2023/02/14 07:46:02;;;;;;;49.40;17.58;;;;;;;2.27;57.81;103501.47;4952406;28;20122;-66
2023/02/14 07:48:30;;;;;;;43.55;17.92;;;;;;;2.69;56.15;103507.31;4933824;28;20042;-69
2023/02/14 07:51:01;;;;;;;45.65;15.65;;;;;;;2.85;54.89;103500.97;4955135;28;20030;-66
2023/02/14 07:53:29;;;;;;;46.42;18.95;;;;;;;2.74;54.52;103495.41;4941116;28;20844;-70
2023/02/14 07:55:55;;;;;;;44.72;15.85;;;;;;;3.22;54.32;103499.59;4949917;28;20035;-70
2023/02/14 07:58:20;;;;;;;40.85;15.27;;;;;;;3.73;53.39;103489.19;4951392;28;20030;-66
2023/02/14 08:00:46;;;;;;;34.10;15.18;;;;;;;4.12;52.19;103490.31;4939559;28;20043;-74
2023/02/14 08:03:20;;;;;;;36.30;15.55;;;;;;;4.13;51.55;103482.59;4951203;28;20030;-71
2023/02/14 08:05:55;;;;;;;35.53;13.88;;;;;;;4.22;50.73;103484.56;4940651;28;20078;-75
2023/02/14 08:08:55;;;;;;;35.25;13.75;;;;;;;4.65;50.20;103480.56;4950724;28;20144;-76
2023/02/14 08:14:07;;;;;;;33.15;13.95;;;;;;;5.77;46.44;103469.44;4953755;28;20621;-68
2023/02/14 08:16:38;;;;;;;32.90;13.65;;;;;;;5.98;46.46;103469.06;4938788;28;20031;-70
2023/02/14 08:19:06;;;;;;;25.70;11.50;;;;;;;6.40;45.06;103474.25;4947855;28;20043;-70
2023/02/14 08:21:32;;;;;;;27.98;11.40;;;;;;;6.64;43.75;103472.94;4945156;28;20037;-69
2023/02/14 08:24:01;;;;;;;31.08;13.48;;;;;;;7.00;44.01;103477.03;4954420;28;20085;-70
2023/02/14 08:26:32;;;;;;;27.95;11.35;;;;;;;6.72;42.35;103479.16;4939546;28;20121;-69
2023/02/14 08:29:00;;;;;;;;;;;;;;;6.88;42.67;103475.09;4940964;28;20074;-69
2023/02/14 08:31:33;;;;;;;25.42;11.18;;;;;;;7.25;42.81;103474.00;4950224;28;19918;-68
2023/02/14 08:34:00;;;;;;;29.52;11.82;;;;;;;7.09;41.13;103472.00;4929944;28;20447;-70
2023/02/14 08:36:28;;;;;;;25.15;10.93;;;;;;;6.99;42.37;103470.09;4948446;28;20031;-70
2023/02/14 08:39:03;;;;;;;25.92;12.13;;;;;;;6.64;42.45;103473.84;4955973;28;20046;-69
2023/02/14 08:41:29;;;;;;;25.35;11.40;;;;;;;6.90;42.36;103474.28;4949446;28;20042;-73
2023/02/14 08:43:57;;;;;;;21.52;10.18;;;;;;;6.57;41.90;103476.28;4949824;28;20043;-71
2023/02/14 08:46:36;;;;;;;23.25;11.48;;;;;;;6.73;43.00;103478.34;4943395;28;20031;-72
2023/02/14 08:49:01;;;;;;;23.88;11.75;;;;;;;6.81;42.21;103474.13;4951662;28;20042;-69
2023/02/14 08:51:29;;;;;;;25.23;10.15;;;;;;;7.01;42.39;103486.59;4948295;28;20036;-70
2023/02/14 08:54:13;;;;;;;22.58;11.18;;;;;;;6.90;41.92;103479.47;4949169;28;20056;-68
2023/02/14 08:56:41;;;;;;;22.95;11.15;;;;;;;6.66;42.60;103476.44;4958576;28;20064;-67
2023/02/14 08:59:08;;;;;;;25.67;10.70;;;;;;;7.06;41.25;103471.94;4944948;28;20822;-69
2023/02/14 09:01:36;;;;;;;22.25;10.40;;;;;;;7.06;41.93;103479.75;4947597;28;20042;-67
2023/02/14 09:04:04;;;;;;;24.98;11.07;;;;;;;7.12;41.91;103474.66;4965529;28;20108;-67
2023/02/14 09:06:32;;;;;;;24.05;10.25;;;;;;;7.15;42.42;103471.22;4953938;28;20041;-67
2023/02/14 09:08:57;;;;;;;29.95;10.75;;;;;;;6.93;42.29;103472.59;4947775;28;20042;-69
2023/02/14 09:11:28;;;;;;;21.88;9.73;;;;;;;6.39;43.00;103477.69;4949806;28;20582;-70
2023/02/14 09:13:53;;;;;;;26.90;11.20;;;;;;;5.59;44.42;103481.22;4951416;28;20085;-70
2023/02/14 09:16:20;;;;;;;28.27;10.65;;;;;;;5.84;44.87;103481.75;4944556;28;20130;-72
2023/02/14 09:18:47;;;;;;;26.20;10.57;;;;;;;5.40;45.97;103479.03;4947156;28;20500;-71
2023/02/14 09:21:15;;;;;;;26.90;12.45;;;;;;;5.44;45.80;103475.66;4950228;28;20113;-68
2023/02/14 09:23:41;;;;;;;25.48;11.32;;;;;;;5.67;45.76;103474.44;4954664;28;20443;-71
2023/02/14 09:26:11;;;;;;;24.15;11.75;;;;;;;6.34;44.72;103479.31;4962862;28;20585;-69
2023/02/14 09:28:37;;;;;;;27.73;11.70;;;;;;;6.69;44.27;103473.94;4939835;28;20035;-71
2023/02/14 09:31:15;;;;;;;26.40;10.68;;;;;;;6.38;43.44;103478.56;4970328;28;20251;-65
2023/02/14 09:33:52;;;;;;;19.35;9.02;;;;;;;6.49;44.04;103473.56;4936626;28;20278;-66
2023/02/14 09:39:19;;;;;;;25.20;11.68;;;;;;;6.82;44.36;103473.28;4962956;28;20047;-70
2023/02/14 09:41:53;;;;;;;27.80;13.50;;;;;;;6.88;43.92;103480.31;4948825;28;20038;-69
2023/02/14 09:44:24;;;;;;;28.58;12.05;;;;;;;7.09;42.29;103472.00;4948590;28;20066;-70
2023/02/14 09:46:58;;;;;;;23.98;12.82;;;;;;;7.20;43.01;103470.44;4944190;28;20039;-73
2023/02/14 09:49:46;;;;;;;;;;;;;;;;;;;;;
2023/02/14 09:52:24;;;;;;;25.83;11.75;;;;;;;7.57;41.96;103465.81;4950567;28;20041;-73
2023/02/14 09:54:54;;;;;;;23.83;11.18;;;;;;;7.76;42.27;103471.25;4928968;28;20053;-71
2023/02/14 09:57:56;;;;;;;22.75;11.38;;;;;;;7.65;42.58;103465.94;4953570;28;20105;-71
2023/02/14 10:00:40;;;;;;;23.40;11.07;;;;;;;7.87;41.15;103472.28;4939850;28;20046;-72
2023/02/14 10:03:30;;;;;;;25.30;12.52;;;;;;;7.73;42.17;103464.28;4948880;28;20043;-69
2023/02/14 10:06:16;;;;;;;22.65;10.95;;;;;;;7.93;41.84;103468.00;4929209;28;20057;-68
2023/02/14 10:09:00;;;;;;;24.17;11.00;;;;;;;7.94;40.47;103456.75;4944954;28;21203;-70
2023/02/14 10:11:29;;;;;;;28.95;12.73;;;;;;;8.48;41.16;103452.16;4945544;28;20533;-70
2023/02/14 10:14:11;;;;;;;23.55;10.40;;;;;;;8.65;39.91;103456.63;4953985;28;20052;-71
2023/02/14 10:16:56;;;;;;;21.85;10.50;;;;;;;8.83;40.44;103456.84;4961924;28;20034;-70
2023/02/14 10:19:39;;;;;;;23.35;11.07;;;;;;;8.98;40.36;103445.66;4952225;28;20399;-69
2023/02/14 10:22:27;;;;;;;;;;;;;;;;;;;;;
2023/02/14 10:25:27;;;;;;;28.85;11.63;;;;;;;9.02;40.40;103449.16;4955752;28;20511;-83
2023/02/14 10:27:57;;;;;;;24.08;11.98;;;;;;;9.31;39.27;103444.16;4951281;28;20136;-73
2023/02/14 10:30:27;;;;;;;27.35;12.13;;;;;;;9.79;39.43;103450.53;4950210;28;20107;-71
2023/02/14 10:33:32;;;;;;;21.13;11.25;;;;;;;9.33;40.48;103448.53;4960685;28;20543;-69
2023/02/14 10:36:26;;;;;;;22.02;11.57;;;;;;;10.02;38.86;103448.03;4943287;28;20664;-71
2023/02/14 10:39:17;;;;;;;23.77;12.35;;;;;;;10.35;38.45;103449.00;4959261;28;21827;-70
2023/02/14 10:41:52;;;;;;;21.33;11.25;;;;;;;10.41;37.43;103444.66;4972082;28;20041;-70
2023/02/14 10:44:51;;;;;;;25.52;10.73;;;;;;;10.36;38.49;103448.09;4956709;28;20039;-70
2023/02/14 10:47:48;;;;;;;23.33;10.68;;;;;;;10.75;39.00;103438.53;4960265;28;20039;-69
2023/02/14 10:50:51;;;;;;;20.60;10.43;;;;;;;9.86;38.57;103436.66;4940485;28;20105;-76
2023/02/14 10:53:44;;;;;;;19.73;10.38;;;;;;;10.41;38.50;103433.28;4950278;28;20030;-68
2023/02/14 10:56:36;;;;;;;18.33;10.70;;;;;;;10.81;36.69;103428.09;4947587;28;20345;-69
2023/02/14 10:59:17;;;;;;;;;;;;;;;10.87;36.77;103422.88;4930583;28;20042;-68
2023/02/14 11:01:44;;;;;;;18.95;10.40;;;;;;;10.63;36.81;103418.50;4930260;28;19929;-71
2023/02/14 11:04:12;;;;;;;19.80;10.82;;;;;;;10.82;37.90;103420.28;4949937;28;20043;-68
2023/02/14 11:06:38;;;;;;;20.73;11.77;;;;;;;10.61;37.15;103415.88;4929374;28;20031;-72
2023/02/14 11:09:04;;;;;;;16.65;10.13;;;;;;;10.34;37.63;103418.47;4952056;28;20474;-72
2023/02/14 11:11:36;;;;;;;17.33;10.35;;;;;;;10.42;38.57;103412.38;4939468;28;20583;-75
2023/02/14 11:14:37;;;;;;;19.67;11.02;;;;;;;10.97;37.02;103414.16;4933922;28;20168;-70
2023/02/14 11:17:33;;;;;;;20.33;11.80;;;;;;;11.24;37.24;103405.38;4894939;28;20059;-71
2023/02/14 11:20:05;;;;;;;22.13;10.77;;;;;;;11.27;36.44;103401.03;4945710;28;20138;-72
2023/02/14 11:22:36;;;;;;;19.23;9.82;;;;;;;10.92;36.20;103405.44;4952340;28;20045;-70
2023/02/14 11:25:23;;;;;;;21.52;10.18;;;;;;;11.18;36.39;103401.91;4939099;28;20042;-70
2023/02/14 11:27:57;;;;;;;18.02;9.98;;;;;;;11.25;35.53;103403.63;4947320;28;20073;-70
2023/02/14 11:30:32;;;;;;;21.38;11.18;;;;;;;10.97;35.87;103403.69;4982443;28;20145;-71
2023/02/14 11:33:03;;;;;;;21.27;11.27;;;;;;;10.69;37.02;103396.72;4961770;28;20344;-69
2023/02/14 11:35:35;;;;;;;21.27;10.77;;;;;;;11.11;36.57;103392.34;4950928;28;20042;-69
2023/02/14 11:38:30;;;;;;;18.20;11.00;;;;;;;11.68;35.83;103387.75;4952526;28;20913;-69
2023/02/14 11:41:00;;;;;;;23.55;11.18;;;;;;;11.35;35.33;103381.81;4927762;28;20419;-72
2023/02/14 11:43:40;;;;;;;20.08;10.68;;;;;;;11.77;35.66;103374.63;4956904;28;20027;-71
2023/02/14 11:46:22;;;;;;;18.23;10.82;;;;;;;11.17;36.01;103368.75;4953675;28;20034;-70
2023/02/14 11:49:07;;;;;;;18.52;10.63;;;;;;;11.73;35.31;103364.16;4946348;28;20132;-69
2023/02/14 11:51:35;;;;;;;19.08;10.68;;;;;;;12.43;33.38;103365.47;4951811;28;20039;-70
2023/02/14 11:54:10;;;;;;;19.50;11.00;;;;;;;11.75;35.07;103354.53;4959583;28;20125;-71
2023/02/14 11:56:45;;;;;;;25.83;11.93;;;;;;;11.71;35.25;103358.94;4948317;28;20041;-70
2023/02/14 11:59:19;;;;;;;22.45;10.40;;;;;;;11.24;35.38;103360.00;4950750;28;20050;-70
2023/02/14 12:01:49;;;;;;;19.35;10.05;;;;;;;11.61;35.93;103352.84;4946245;28;20043;-70
2023/02/14 12:04:21;;;;;;;20.30;9.88;;;;;;;12.03;34.25;103343.03;4950148;28;20485;-69